Date,TemperatureHighF,TemperatureAvgF,TemperatureLowF,DewpointHighF,DewpointAvgF,DewpointLowF,HumidityHigh,HumidityAvg,HumidityLow,PressureMaxIn,PressureMinIn,WindSpeedMaxMPH,WindSpeedAvgMPH,GustSpeedMaxMPH,PrecipitationSumIn
2014-1-1,28,23,18,21,16,9,83,74,66,30.41,30.23,0,-724,0,0.00
2014-1-2,26,19,9,21,16,7,93,88,78,30.23,29.69,0,-999,0,0.00
2014-1-3,12,9,4,10,3,-4,92,78,58,30.48,29.67,0,-688,0,0.00
2014-1-4,22,13,2,15,4,-4,80,67,54,30.52,30.31,0,-646,0,0.00
2014-1-5,45,30,19,44,26,14,99,86,66,30.31,29.74,0,-701,0,0.00
2014-1-6,55,37,8,55,33,-5,99,84,51,29.77,29.36,0,-999,0,0.00
2014-1-7,7,2,-3,-4,-8,-14,67,60,51,30.40,29.78,0,-675,0,0.00
2014-1-8,17,10,3,6,1,-6,77,66,57,30.57,30.40,0,-657,0,0.00
2014-1-9,30,21,16,15,12,6,84,69,50,30.67,30.51,0,-689,0,0.00
2014-1-10,36,30,24,36,27,15,98,89,69,30.58,30.19,0,-999,0,0.00
2014-1-11,59,50,36,58,50,35,99,98,93,30.19,29.29,0,-999,0,0.02
2014-1-12,46,38,32,43,32,27,91,78,68,30.06,29.41,0,-767,0,0.00
2014-1-13,50,41,31,37,33,27,86,73,59,30.11,29.86,0,-646,0,0.00
2014-1-14,46,43,39,43,41,37,98,91,71,29.86,29.67,0,-999,0,0.00
2014-1-17,40,35,33,30,28,26,78,73,67,29.93,29.86,0,-662,0,0.00
2014-1-18,35,30,21,30,25,15,97,84,70,29.87,29.70,5,-783,7,0.00
2014-1-19,31,24,16,24,18,13,88,80,72,29.84,29.67,0,-683,0,0.00
2014-1-20,37,32,24,31,25,18,88,75,68,29.90,29.60,0,-999,0,0.00
2014-1-21,24,15,8,17,10,4,91,83,66,29.98,29.83,0,-999,0,0.00
2014-1-22,11,5,-2,4,-4,-9,84,68,51,30.03,29.82,0,-636,0,0.00
2014-1-23,17,8,1,8,1,-5,82,70,55,30.32,30.02,0,-623,0,0.00
2014-1-24,17,10,5,3,0,-3,79,64,45,30.40,30.05,0,-618,0,0.00
2014-1-25,19,16,12,17,11,2,93,80,64,30.05,29.45,0,-999,0,0.00
2014-1-26,22,16,10,17,7,0,90,69,55,29.90,29.49,0,-643,0,0.00
2014-1-27,34,25,14,27,14,0,80,65,41,30.08,29.62,0,-710,0,0.00
2014-1-28,14,10,6,3,-2,-7,80,58,44,30.37,30.08,0,-670,0,0.00
2014-1-29,20,12,5,4,-1,-6,78,57,39,30.31,30.12,0,-635,0,0.00
2014-1-30,26,16,9,9,3,-1,66,55,41,30.47,30.18,0,-636,0,0.00
2014-1-31,22,19,17,14,10,6,73,67,60,30.18,30.10,0,-999,0,0.00
2014-2-1,42,38,36,36,26,19,92,61,46,30.32,30.01,0,-448,0,0.00
2014-2-2,46,39,35,38,34,31,94,82,62,30.09,29.91,0,-697,0,0.00
2014-2-3,36,28,22,31,26,18,97,93,83,30.31,30.07,0,-999,0,0.00
2014-2-4,32,23,16,25,18,12,92,82,66,30.48,30.23,0,-612,0,0.00
2014-2-5,32,28,23,31,27,21,98,95,88,30.26,29.65,0,-999,0,0.00
2014-2-6,27,20,14,21,16,11,90,85,75,30.29,29.99,0,-638,0,0.00
2014-2-7,29,22,17,19,15,9,88,75,62,30.33,30.22,0,-609,0,0.00
2014-2-8,25,19,14,11,6,1,71,57,41,30.33,30.15,0,-628,0,0.00
2014-2-9,27,20,14,19,13,7,94,75,54,30.19,30.00,0,-633,0,0.00
2014-2-10,24,19,13,17,10,6,93,69,52,30.28,30.01,0,-623,0,0.00
2014-2-11,21,15,9,8,5,3,76,64,49,30.48,30.27,0,-583,0,0.00
2014-2-13,31,26,19,31,25,18,98,96,94,29.90,29.11,0,-754,0,0.00
2014-2-14,34,30,26,33,28,25,97,94,84,29.77,29.11,0,-564,0,0.00
2014-2-15,33,29,21,29,25,15,97,88,76,29.78,29.61,0,-697,0,0.00
2014-2-16,24,19,14,15,11,8,78,71,53,30.15,29.79,0,-654,0,0.00
2014-2-17,30,20,11,10,6,3,83,56,32,30.41,30.15,2,-606,4,0.00
2014-2-18,33,28,22,30,23,8,96,81,51,30.31,29.97,0,-735,0,0.00
2014-2-19,41,35,28,38,30,21,97,85,69,30.09,29.69,0,-909,0,0.00
2014-2-20,47,39,32,36,28,25,95,67,44,30.25,29.99,0,-603,0,0.00
2014-2-21,49,40,35,48,38,32,99,96,83,30.00,29.62,0,-999,0,0.00
2014-2-22,49,38,34,33,26,21,85,63,36,30.02,29.89,0,-888,0,0.00
2014-2-23,50,43,39,31,30,28,71,61,45,30.00,29.84,0,-599,0,0.00
2014-2-24,37,31,27,28,18,13,75,59,47,29.97,29.81,0,-500,0,0.00
2014-2-25,28,22,19,18,13,10,72,66,58,30.07,29.94,0,-618,0,0.00
2014-2-26,25,20,13,20,7,-4,90,59,40,29.97,29.82,0,-642,0,0.00
2014-2-27,23,12,7,9,-5,-12,63,46,40,30.11,29.65,0,-897,0,0.00
2014-2-28,20,10,2,1,-5,-12,61,49,39,30.43,30.11,0,-563,0,0.00
2014-3-1,32,23,12,17,9,-6,73,55,42,30.42,30.16,0,-609,0,0.00
2014-3-2,36,30,24,27,20,13,70,66,62,30.15,30.00,0,-772,0,0.00
2014-3-3,23,16,10,13,4,-2,74,59,50,30.34,30.01,0,-670,0,0.00
2014-3-4,27,16,6,8,3,-2,75,57,34,30.42,30.25,0,-593,0,0.00
2014-3-5,32,25,19,15,10,4,74,52,41,30.45,30.21,0,-590,0,0.00
2014-3-6,30,19,10,12,4,-3,75,52,29,30.61,30.44,0,-574,0,0.00
2014-3-7,37,28,17,28,20,11,81,73,60,30.48,29.94,0,-622,0,0.00
2014-3-8,34,30,28,28,27,26,96,89,78,29.94,29.87,0,-850,0,0.00
2014-3-9,38,34,31,26,19,11,78,55,35,30.03,29.94,0,-390,0,0.00
2014-3-10,47,39,32,32,27,19,84,62,53,29.94,29.60,0,-630,0,0.00
2014-3-11,62,50,41,40,37,31,74,61,42,29.69,29.57,0,-557,0,0.00
2014-3-12,53,47,30,48,40,28,98,78,63,29.67,29.00,0,-681,0,0.02
2014-3-13,22,20,18,5,2,0,51,46,43,30.11,29.85,0,-788,0,0.00
2014-3-14,42,29,17,27,13,-1,63,50,41,30.21,29.88,0,-677,0,0.01
2014-3-15,52,44,38,34,28,24,63,53,39,30.00,29.75,0,-591,0,0.00
2014-3-16,37,28,23,25,13,5,67,53,43,30.19,30.00,0,-554,0,0.00
2014-3-17,28,23,16,11,5,0,55,46,30,30.14,30.05,0,-620,0,0.00
2014-3-18,42,30,18,24,9,1,83,44,20,30.29,30.12,0,-587,0,0.00
2014-3-19,38,33,26,37,30,23,97,90,84,30.29,29.83,0,-708,0,0.09
2014-3-20,48,39,34,40,32,24,98,77,48,29.91,29.75,0,-573,0,0.01
2014-3-21,50,40,33,26,22,20,66,51,35,30.05,29.90,0,-544,0,0.00
2014-3-22,59,45,36,38,29,20,72,54,33,30.03,29.78,0,-563,0,0.00
2014-3-23,37,32,22,27,19,9,70,58,39,30.14,29.97,0,-777,0,0.00
2014-3-24,29,22,16,11,7,5,67,53,37,30.25,30.12,0,-559,0,0.00
2014-3-25,35,28,20,20,13,5,66,53,41,30.17,29.87,0,-585,0,0.00
2014-3-26,29,26,20,22,12,6,79,57,41,30.25,29.79,0,-582,0,0.00
2014-3-27,40,28,16,21,11,6,69,50,29,30.42,30.24,0,-527,0,0.00
2014-3-28,55,44,32,51,39,21,97,84,60,30.24,29.97,0,-956,0,0.11
2014-3-29,53,44,41,50,42,38,97,92,84,30.16,29.65,0,-999,0,0.27
2014-3-30,44,40,34,44,39,33,99,97,93,29.70,29.50,0,-999,0,0.11
2014-3-31,49,39,32,36,32,30,95,77,56,30.08,29.70,0,-606,0,0.02
2014-4-1,57,44,32,38,32,27,83,65,42,30.14,29.98,0,-535,0,0.01
2014-4-2,59,46,38,44,39,35,88,77,49,30.13,30.01,0,-751,0,0.01
2014-4-3,62,51,40,43,29,19,87,47,19,30.13,29.96,0,-508,0,0.00
2014-4-4,42,39,37,40,38,36,98,95,90,30.04,29.75,0,-999,0,0.00
2014-4-5,49,41,36,41,33,24,99,76,52,30.07,29.73,0,-511,0,0.00
2014-4-6,58,42,30,25,22,18,76,49,22,30.21,30.07,0,-532,0,0.01
2014-4-7,48,44,41,44,31,21,97,64,38,30.20,29.64,0,-999,0,0.00
2014-4-8,60,51,44,54,45,35,99,81,55,29.65,29.42,0,-593,0,0.01
2014-4-9,56,47,40,39,33,26,85,60,35,29.97,29.63,0,-469,0,0.00
2014-4-10,63,55,37,37,33,23,58,44,36,30.20,30.00,0,-348,0,0.00
2014-4-11,69,57,49,52,45,36,95,66,48,30.01,29.93,0,-661,0,0.00
2014-4-12,70,56,43,47,42,37,96,64,32,30.22,30.01,0,-690,0,0.00
2014-4-13,78,63,51,57,50,33,93,64,43,30.16,29.94,0,-999,0,0.00
2014-4-14,73,66,60,59,56,54,88,71,53,29.97,29.79,0,-999,0,0.00
2014-4-15,63,61,59,62,59,56,98,94,82,29.79,29.49,0,-999,0,0.00
2014-4-16,42,35,25,24,20,17,76,55,41,30.58,30.19,0,-999,0,0.04
2014-4-17,49,38,30,31,24,18,88,60,39,30.71,30.58,0,-999,0,0.01
2014-4-18,50,40,31,32,31,28,90,71,48,30.61,30.25,0,-999,0,0.01
2014-4-19,61,50,40,38,30,22,78,50,24,30.34,30.22,0,-999,0,0.00
2014-4-20,58,48,40,35,29,24,60,47,34,30.46,30.31,0,-999,0,0.00
2014-4-21,69,53,38,31,22,13,56,32,14,30.31,29.85,0,-999,0,0.00
2014-4-22,69,57,48,54,46,31,86,68,39,29.85,29.51,0,-999,0,0.00